Terminal Aerodrome Forecast
Issued by NWS

Home | Current Version | Previous Version | Text Only | Print | Product List | Glossary On
Versions: 1 2 3 4 5 6 7 8 9 10 11 12 13 14
000
FTUS43 KEAX 030800 AAA
TAFMKC
TAF AMD
KMKC 030855Z 0309/0406 19011KT P6SM OVC120
      TEMPO 0310/0313 -SHRA OVC070
     FM031400 19014G22KT P6SM SCT090
     FM040100 20008KT P6SM SCT150=

USA.gov is the U.S. government's official web portal to all federal, state and local government web resources and services.